Flight Track Log - Related Links

Times and Time Zones

All times are in EDT time to prevent confusion due to time zone crossing. See the OPT429 flight status page for this flight to view local times or setup timezone preferences in your user account.


Time Position Orientation Groundspeed Altitude Reporting Facility
EDT Latitude Longitude Course Direction KTS MPH feet Rate Location/Type
Sat 03:11:04 PM 43.1867 -95.0614 69° East 547 629 4,900  Level Minneapolis Center
Sat 03:12:06 PM 43.2122 -94.9711 69° East 254 292 6,800 1,935 Climbing Minneapolis Center
Sat 03:13:08 PM 43.2403 -94.8653 70° East 273 314 8,900 2,537 Climbing Minneapolis Center
Sat 03:14:09 PM 43.2619 -94.7564 75° East 293 337 12,000 2,878 Climbing Minneapolis Center
Sat 03:15:11 PM 43.2861 -94.6444 73° East 303 349 14,800 2,419 Climbing Minneapolis Center
Sat 03:16:13 PM 43.3125 -94.5236 73° East 325 374 17,000 2,032 Climbing Minneapolis Center
Sat 03:17:15 PM 43.3400 -94.3894 74° East 358 412 19,000 2,000 Climbing Minneapolis Center
Sat 03:18:16 PM 43.3708 -94.2428 74° East 377 434 21,100 1,902 Climbing Minneapolis Center
Sat 03:19:18 PM 43.4008 -94.1006 74° East 384 442 22,900 1,887 Climbing Minneapolis Center
Sat 03:20:20 PM 43.4378 -93.9222 74° East 401 461 25,000 1,756 Climbing Minneapolis Center
Sat 03:21:21 PM 43.4681 -93.7700 75° East 409 471 26,500 1,463 Climbing Minneapolis Center
Sat 03:22:23 PM 43.4997 -93.6142 74° East 417 480 28,000 1,403 Climbing Minneapolis Center
Sat 03:23:25 PM 43.5319 -93.4531 75° East 431 496 29,400 1,415 Climbing Minneapolis Center
Sat 03:24:26 PM 43.5650 -93.2881 74° East 445 512 30,900 1,610 Climbing Minneapolis Center
Sat 03:25:28 PM 43.5992 -93.1189 74° East 454 522 32,700 1,790 Climbing Minneapolis Center
Sat 03:26:30 PM 43.6392 -92.9186 75° East 454 522 34,600 1,512 Climbing Minneapolis Center
Sat 03:27:31 PM 43.6739 -92.7486 74° East 455 524 35,800 1,073 Climbing Minneapolis Center
Sat 03:28:33 PM 43.7053 -92.5761 76° East 460 529 36,800 1,073 Climbing Minneapolis Center
Sat 03:29:34 PM 43.7397 -92.4006 75° East 468 539 38,000 1,415 Climbing Minneapolis Center
Sat 03:30:36 PM 43.7717 -92.2269 76° East 468 539 39,700 1,403 Climbing Minneapolis Center
Sat 03:31:38 PM 43.8039 -92.0619 75° East 452 520 40,900 634 Climbing Minneapolis Center
Sat 03:32:39 PM 43.8311 -91.8978 77° East 446 513 41,000 49 Climbing Minneapolis Center
Sat 03:33:41 PM 43.8697 -91.6950 75° East 450 518 41,000  Level Minneapolis Center
Sat 03:34:42 PM 43.9028 -91.5239 75° East 454 522 41,000  Level Minneapolis Center
Sat 03:35:44 PM 43.9356 -91.3544 75° East 454 522 41,000  Level Minneapolis Center
Sat 03:36:46 PM 43.9717 -91.1903 73° East 454 522 41,000  Level Minneapolis Center
Sat 03:37:47 PM 44.0067 -91.0225 74° East 454 522 41,000  Level Minneapolis Center
Sat 03:38:50 PM 44.0417 -90.8547 74° East 454 522 41,000  Level Minneapolis Center
Sat 03:39:51 PM 44.0839 -90.6525 74° East 454 522 41,000  Level Minneapolis Center
Sat 03:40:53 PM 44.1133 -90.5000 75° East 454 522 41,000  Level Minneapolis Center
Sat 03:41:55 PM 44.1492 -90.3286 74° East 455 524 41,000  Level Minneapolis Center
Sat 03:42:56 PM 44.1822 -90.1572 75° East 457 526 41,000  Level Minneapolis Center
Sat 03:43:58 PM 44.2244 -89.9489 74° East 460 529 41,000  Level Minneapolis Center
Sat 03:45:00 PM 44.2578 -89.7778 75° East 461 531 41,000  Level Minneapolis Center
Sat 03:46:02 PM 44.2914 -89.6044 75° East 462 532 41,000  Level Minneapolis Center
Sat 03:47:03 PM 44.3253 -89.4308 75° East 462 532 41,000  Level Minneapolis Center
Sat 03:48:06 PM 44.3586 -89.2567 75° East 462 532 41,000  Level Minneapolis Center
Sat 03:49:07 PM 44.3794 -89.0797 81° East 464 534 41,000  Level Minneapolis Center
Sat 03:50:09 PM 44.3964 -88.9006 82° East 464 534 41,000  Level Minneapolis Center
Sat 03:51:11 PM 44.4139 -88.7203 82° East 464 534 41,000  Level Minneapolis Center
Sat 03:52:12 PM 44.4336 -88.5078 83° East 463 533 41,000  Level Minneapolis Center
Sat 03:53:14 PM 44.4494 -88.3289 83° East 463 533 41,000  Level Minneapolis Center
Sat 03:54:16 PM 44.4661 -88.1522 82° East 462 532 41,000 -97 Level Minneapolis Center
Sat 03:55:18 PM 44.4817 -87.9719 83° East 462 532 40,800 -1,268 Descending Minneapolis Center
Sat 03:56:19 PM 44.4983 -87.7853 83° East 463 533 38,400 -2,537 Descending Minneapolis Center
Sat 03:57:21 PM 44.5133 -87.6033 83° East 470 541 35,600 -2,758 Descending Minneapolis Center
Sat 03:58:23 PM 44.5294 -87.4217 83° East 471 542 32,700 -2,806 Descending Minneapolis Center
Sat 03:59:25 PM 44.5431 -87.2439 84° East 465 535 29,800 -3,048 Descending Minneapolis Center
Sat 04:00:27 PM 44.5600 -87.0342 83° East 456 525 26,400 -2,976 Descending Minneapolis Center
Sat 04:01:28 PM 44.5736 -86.8614 84° East 453 521 23,700 -2,634 Descending Minneapolis Center
Sat 04:02:30 PM 44.5861 -86.6939 84° East 439 505 21,000 -2,516 Descending Minneapolis Center
Sat 04:03:32 PM 44.5775 -86.5419 94° East 396 456 18,500 -2,439 Descending Minneapolis Center
Sat 04:04:33 PM 44.5647 -86.4022 97° East 371 427 16,000 -1,756 Descending Minneapolis Center
Sat 04:05:35 PM 44.5519 -86.2664 97° East 360 414 14,900 -532 Descending Minneapolis Center
Sat 04:06:37 PM 44.5386 -86.1094 97° East 344 396 14,900  Level Minneapolis Center
Sat 04:07:38 PM 44.5297 -85.9903 96° East 318 366 14,900  Level Minneapolis Center
Sat 04:08:40 PM 44.5347 -85.8764 86° East 302 348 14,900 -919 Level Minneapolis Center
Sat 04:09:42 PM 44.5422 -85.7656 85° East 294 338 13,000 -2,488 Descending Minneapolis Center
Sat 04:10:43 PM 44.5906 -85.6725 54° Northeast 298 343 9,800 -2,976 Descending Minneapolis Center
Sat 04:11:45 PM 44.6411 -85.5867 50° Northeast 293 337 6,900 -2,323 Descending Minneapolis Center
Sat 04:12:47 PM 44.6944 -85.4983 50° Northeast 266 306 5,000 -1,548 Descending Minneapolis Center
Sat 04:13:49 PM 44.7253 -85.4614 40° Northeast 197 227 3,700 -1,366 Descending Minneapolis Center
Sat 04:14:50 PM 44.7433 -85.4933 309° West 162 186 2,200 -1,220 Descending Minneapolis Center
Sat 04:15:52 PM 44.7392 -85.5406 263° West 139 160 1,200 -968 Descending Minneapolis Center

Login

Don't have an account? Register now (free) for customized features, flight alerts, and more!